• Join FlightAware (Why Join?)
  • Login
  • US Flag 
Rudolph Flight #1: Arrived! 
06:22AM EST


 

Airport Tracker/Info


-or-


 

Live Flight TrackerFlight Track Log ✈ OPT332 ✈ 04-Nov-2013 ✈ KCMA - KLAS

Flight Track Log - Related Links

Times and Time Zones

All times are in EST time to prevent confusion due to time zone crossing. See the OPT332 flight status page for this flight to view local times or setup timezone preferences in your user account.

Time Position Orientation Groundspeed Altitude Reporting Facility
EST Latitude Longitude Course Direction KTS MPH feet Rate Location/Type
10:33PM 34.1817 -119.3514 73° East 280 322 9,600  Level FlightAware ADS-B
10:34PM 34.1483 -119.4106 73° East 298 343 12,800 3,540 Climbing Los Angeles Center
10:35PM 34.0886 -119.3553 143° Southeast 290 334 16,100 3,060 Climbing Los Angeles Center
10:36PM 34.4848 -118.5489 73° East  Level Estimated
10:36PM 34.0772 -119.2567 98° East 295 339 19,100  Level Los Angeles Center
10:37PM 34.1092 -119.1678 67° East 290 334 22,200 2,700 Climbing Los Angeles Center
10:38PM 34.1383 -119.0797 68° East 283 326 24,700 2,460 Climbing Los Angeles Center
10:39PM 34.1694 -118.9872 68° East 294 338 27,300 1,920 Climbing Los Angeles Center
10:40PM 34.2042 -118.8875 67° East 317 365 28,700 780 Climbing Los Angeles Center
10:41PM 34.2442 -118.7717 67° East 368 423 29,000 120 Climbing Los Angeles Center
10:42PM 34.2950 -118.6200 68° East 402 463 29,000  Level Los Angeles Center
10:43PM 34.3389 -118.4906 68° East 411 473 29,000  Level Los Angeles Center
10:49PM 34.6023 -117.6963 68° East 413 475 29,000  Level FlightAware ADS-B
10:50PM 34.6428 -117.5706 68° East 412 474 29,000  Level Los Angeles Center
10:51PM 34.6839 -117.4431 69° East 410 472 29,000  Level Los Angeles Center
10:52PM 34.7256 -117.3161 68° East 408 470 29,000  Level Los Angeles Center
10:53PM 34.7747 -117.1622 69° East 410 472 29,000  Level Los Angeles Center
10:55PM 34.8233 -117.0103 69° East 407 468 29,000  Level Los Angeles Center
10:56PM 34.8650 -116.8811 69° East 410 472 29,000  Level Los Angeles Center
10:57PM 34.9186 -116.7625 61° Northeast 399 459 29,000 -300 Level Los Angeles Center
10:58PM 34.9769 -116.6478 58° Northeast 398 458 28,500 -1,260 Descending Los Angeles Center
10:59PM 35.0364 -116.5311 58° Northeast 404 465 26,400 -2,400 Descending Los Angeles Center
11:00PM 35.1106 -116.3869 58° Northeast 416 479 23,700 -2,220 Descending Los Angeles Center
11:01PM 35.1925 -116.2878 45° Northeast 416 479 21,900 -1,680 Descending Los Angeles Center
11:02PM 35.2700 -116.1903 46° Northeast 403 464 20,300 -1,440 Descending Los Angeles Center
11:03PM 35.3453 -116.0950 46° Northeast 393 452 19,000 -1,200 Descending Los Angeles Center
11:04PM 35.4189 -116.0014 46° Northeast 384 442 17,900 -1,260 Descending Los Angeles Center
11:04PM 35.4647 -115.9483 43° Northeast 386 444 17,100 -1,380 Descending Los Angeles Center
11:05PM 35.4936 -115.9086 48° Northeast 384 442 16,500 -1,440 Descending Los Angeles Center
11:06PM 35.5503 -115.8444 43° Northeast 377 434 15,500 -1,380 Descending Los Angeles Center
11:06PM 35.5664 -115.8131 58° Northeast 373 429 15,100 -1,260 Descending Los Angeles Center
11:06PM 35.6044 -115.7744 40° Northeast 334 384 14,400 -1,260 Descending Los Angeles Center
11:07PM 35.6392 -115.7236 50° Northeast 311 358 13,800 -1,200 Descending Los Angeles Center
11:08PM 35.6719 -115.6867 42° Northeast 307 353 13,100 -1,140 Descending Los Angeles Center
11:08PM 35.6972 -115.6439 54° Northeast 311 358 12,700 -1,140 Descending Los Angeles Center
11:09PM 35.7136 -115.5994 66° East 294 338 12,000 -1,380 Descending Los Angeles Center
11:09PM 35.7292 -115.5536 67° East 292 336 11,300 -1,500 Descending Los Angeles Center
11:10PM 35.7467 -115.5119 63° Northeast 280 322 10,500 -1,500 Descending Los Angeles Center
11:10PM 35.7606 -115.4694 68° East 282 325 9,800 -1,920 Descending Los Angeles Center
11:11PM 35.7792 -115.4219 64° Northeast 275 316 8,600 -1,560 Descending Los Angeles Center
11:11PM 35.7922 -115.3875 65° Northeast 275 316 8,200 -900 Descending Los Angeles Center
11:12PM 35.8094 -115.3433 64° Northeast 228 262 7,600 -780 Descending Los Angeles Center
11:12PM 35.8178 -115.3189 67° East 250 288 7,400 -540 Descending Los Angeles Center
11:13PM 35.8494 -115.2983 28° Northeast 206 237 7,100 -300 Descending Los Angeles Center
11:13PM 35.8661 -115.2894 23° Northeast 218 251 7,100 -720 Level Los Angeles Center
11:14PM 35.8978 -115.2719 24° Northeast 176 203 6,400 -1,080 Descending Los Angeles Center
11:14PM 35.9183 -115.2592 27° Northeast 190 219 6,000 -1,020 Descending Los Angeles Center
11:15PM 35.9344 -115.2519 20° North 166 191 5,500 -900 Descending Los Angeles Center
11:15PM 35.9519 -115.2397 29° Northeast 179 206 5,100 -900 Descending Los Angeles Center
11:16PM 35.9803 -115.2236 25° Northeast 150 173 4,500 -600 Descending Los Angeles Center
11:16PM 35.9931 -115.2167 24° Northeast 172 198 4,500 -900 Level Los Angeles Center
11:17PM 36.0133 -115.2075 20° North 140 161 3,700 -1,200 Descending Los Angeles Center
11:17PM 36.0303 -115.1939 33° Northeast 159 183 3,300 -660 Descending Los Angeles Center
11:18PM 36.0439 -115.1894 15° North 112 129 3,000 -600 Descending Los Angeles Center
11:18PM 36.0564 -115.1803 31° Northeast 130 150 2,700 -720 Descending Los Angeles Center
11:19PM 36.0686 -115.1733 25° Northeast 111 128 2,400 -600 Descending Los Angeles Center
11:19PM 36.0822 -115.1644 28° Northeast 124 143 2,100 -480 Descending Los Angeles Center
11:21PM 36.0801 -115.1523 95° East  Level Estimated